sensor_id;sensor_type;location;lat;lon;timestamp;P1;durP1;ratioP1;P2;durP2;ratioP2
16075;SDS011;8142;48.242;11.644;2023-11-19T00:02:10;1.40;;;1.30;;
16075;SDS011;8142;48.242;11.644;2023-11-19T00:04:37;1.30;;;1.20;;
16075;SDS011;8142;48.242;11.644;2023-11-19T00:07:06;1.00;;;1.00;;
16075;SDS011;8142;48.242;11.644;2023-11-19T00:09:33;1.37;;;1.27;;
16075;SDS011;8142;48.242;11.644;2023-11-19T00:12:02;1.43;;;1.33;;
16075;SDS011;8142;48.242;11.644;2023-11-19T00:14:33;1.20;;;1.10;;
16075;SDS011;8142;48.242;11.644;2023-11-19T00:17:02;1.30;;;1.20;;
16075;SDS011;8142;48.242;11.644;2023-11-19T00:19:29;1.50;;;1.40;;
16075;SDS011;8142;48.242;11.644;2023-11-19T00:21:55;1.47;;;1.37;;
16075;SDS011;8142;48.242;11.644;2023-11-19T00:24:21;1.30;;;1.20;;
16075;SDS011;8142;48.242;11.644;2023-11-19T00:26:47;1.60;;;1.30;;
16075;SDS011;8142;48.242;11.644;2023-11-19T00:29:12;1.50;;;1.37;;
16075;SDS011;8142;48.242;11.644;2023-11-19T00:31:39;1.40;;;1.30;;
16075;SDS011;8142;48.242;11.644;2023-11-19T00:34:05;1.50;;;1.40;;
16075;SDS011;8142;48.242;11.644;2023-11-19T00:36:31;1.40;;;1.30;;
16075;SDS011;8142;48.242;11.644;2023-11-19T00:38:57;1.43;;;1.33;;
16075;SDS011;8142;48.242;11.644;2023-11-19T00:41:23;1.40;;;1.30;;
16075;SDS011;8142;48.242;11.644;2023-11-19T00:43:50;1.47;;;1.37;;
16075;SDS011;8142;48.242;11.644;2023-11-19T00:46:16;1.30;;;1.20;;
16075;SDS011;8142;48.242;11.644;2023-11-19T00:48:42;1.73;;;1.60;;
16075;SDS011;8142;48.242;11.644;2023-11-19T00:51:08;1.67;;;1.50;;
16075;SDS011;8142;48.242;11.644;2023-11-19T00:53:36;1.60;;;1.50;;
16075;SDS011;8142;48.242;11.644;2023-11-19T00:56:02;1.60;;;1.50;;
16075;SDS011;8142;48.242;11.644;2023-11-19T00:58:28;2.17;;;1.57;;
16075;SDS011;8142;48.242;11.644;2023-11-19T01:00:54;2.00;;;1.67;;
16075;SDS011;8142;48.242;11.644;2023-11-19T01:03:22;1.73;;;1.63;;
16075;SDS011;8142;48.242;11.644;2023-11-19T01:05:48;1.50;;;1.40;;
16075;SDS011;8142;48.242;11.644;2023-11-19T01:08:14;2.23;;;1.73;;
16075;SDS011;8142;48.242;11.644;2023-11-19T01:10:41;1.70;;;1.60;;
16075;SDS011;8142;48.242;11.644;2023-11-19T01:13:07;2.10;;;1.80;;
16075;SDS011;8142;48.242;11.644;2023-11-19T01:15:33;2.33;;;2.00;;
16075;SDS011;8142;48.242;11.644;2023-11-19T01:17:59;2.00;;;1.80;;
16075;SDS011;8142;48.242;11.644;2023-11-19T01:20:27;2.13;;;1.80;;
16075;SDS011;8142;48.242;11.644;2023-11-19T01:22:53;2.00;;;1.70;;
16075;SDS011;8142;48.242;11.644;2023-11-19T01:25:19;1.93;;;1.83;;
16075;SDS011;8142;48.242;11.644;2023-11-19T01:27:45;2.03;;;1.83;;
16075;SDS011;8142;48.242;11.644;2023-11-19T01:30:11;2.50;;;2.23;;
16075;SDS011;8142;48.242;11.644;2023-11-19T01:32:38;2.23;;;2.00;;
16075;SDS011;8142;48.242;11.644;2023-11-19T01:35:05;2.33;;;2.00;;
16075;SDS011;8142;48.242;11.644;2023-11-19T01:37:33;3.23;;;2.10;;
16075;SDS011;8142;48.242;11.644;2023-11-19T01:40:02;2.50;;;2.23;;
16075;SDS011;8142;48.242;11.644;2023-11-19T01:42:37;2.47;;;2.20;;
16075;SDS011;8142;48.242;11.644;2023-11-19T01:45:04;2.67;;;2.30;;
16075;SDS011;8142;48.242;11.644;2023-11-19T01:47:35;2.77;;;2.00;;
16075;SDS011;8142;48.242;11.644;2023-11-19T01:50:02;2.83;;;1.90;;
16075;SDS011;8142;48.242;11.644;2023-11-19T01:52:32;2.03;;;1.80;;
16075;SDS011;8142;48.242;11.644;2023-11-19T01:55:01;2.00;;;1.87;;
16075;SDS011;8142;48.242;11.644;2023-11-19T01:57:28;2.50;;;2.20;;
16075;SDS011;8142;48.242;11.644;2023-11-19T01:59:55;4.17;;;2.07;;
16075;SDS011;8142;48.242;11.644;2023-11-19T02:02:20;2.73;;;2.20;;
16075;SDS011;8142;48.242;11.644;2023-11-19T02:04:49;2.37;;;2.20;;
16075;SDS011;8142;48.242;11.644;2023-11-19T02:07:16;2.20;;;2.00;;
16075;SDS011;8142;48.242;11.644;2023-11-19T02:09:45;4.40;;;2.30;;
16075;SDS011;8142;48.242;11.644;2023-11-19T02:12:11;2.37;;;2.17;;
16075;SDS011;8142;48.242;11.644;2023-11-19T02:14:37;2.30;;;2.10;;
16075;SDS011;8142;48.242;11.644;2023-11-19T02:17:04;2.90;;;2.20;;
16075;SDS011;8142;48.242;11.644;2023-11-19T02:19:30;2.13;;;2.00;;
16075;SDS011;8142;48.242;11.644;2023-11-19T02:21:56;2.37;;;2.03;;
16075;SDS011;8142;48.242;11.644;2023-11-19T02:24:22;2.40;;;1.80;;
16075;SDS011;8142;48.242;11.644;2023-11-19T02:29:21;1.80;;;1.70;;
16075;SDS011;8142;48.242;11.644;2023-11-19T02:31:47;2.07;;;1.87;;
16075;SDS011;8142;48.242;11.644;2023-11-19T02:34:13;2.33;;;2.13;;
16075;SDS011;8142;48.242;11.644;2023-11-19T02:36:39;2.10;;;1.90;;
16075;SDS011;8142;48.242;11.644;2023-11-19T02:39:07;1.67;;;1.30;;
16075;SDS011;8142;48.242;11.644;2023-11-19T02:41:36;1.70;;;1.50;;
16075;SDS011;8142;48.242;11.644;2023-11-19T02:44:07;1.77;;;1.40;;
16075;SDS011;8142;48.242;11.644;2023-11-19T02:46:33;1.83;;;1.40;;
16075;SDS011;8142;48.242;11.644;2023-11-19T02:48:59;1.27;;;1.20;;
16075;SDS011;8142;48.242;11.644;2023-11-19T02:51:25;1.63;;;1.20;;
16075;SDS011;8142;48.242;11.644;2023-11-19T02:53:53;1.50;;;1.33;;
16075;SDS011;8142;48.242;11.644;2023-11-19T02:56:18;1.50;;;1.33;;
16075;SDS011;8142;48.242;11.644;2023-11-19T02:58:51;1.23;;;1.13;;
16075;SDS011;8142;48.242;11.644;2023-11-19T03:01:23;2.27;;;1.30;;
16075;SDS011;8142;48.242;11.644;2023-11-19T03:03:56;1.70;;;1.50;;
16075;SDS011;8142;48.242;11.644;2023-11-19T03:06:23;1.30;;;1.30;;
16075;SDS011;8142;48.242;11.644;2023-11-19T03:08:49;1.40;;;1.30;;
16075;SDS011;8142;48.242;11.644;2023-11-19T03:11:15;2.33;;;1.30;;
16075;SDS011;8142;48.242;11.644;2023-11-19T03:13:41;1.53;;;1.37;;
16075;SDS011;8142;48.242;11.644;2023-11-19T03:16:07;1.50;;;1.40;;
16075;SDS011;8142;48.242;11.644;2023-11-19T03:18:33;1.70;;;1.40;;
16075;SDS011;8142;48.242;11.644;2023-11-19T03:20:59;1.37;;;1.20;;
16075;SDS011;8142;48.242;11.644;2023-11-19T03:23:25;2.93;;;1.30;;
16075;SDS011;8142;48.242;11.644;2023-11-19T03:25:54;1.20;;;1.10;;
16075;SDS011;8142;48.242;11.644;2023-11-19T03:28:20;1.47;;;1.23;;
16075;SDS011;8142;48.242;11.644;2023-11-19T03:30:46;1.20;;;1.10;;
16075;SDS011;8142;48.242;11.644;2023-11-19T03:33:12;1.43;;;1.10;;
16075;SDS011;8142;48.242;11.644;2023-11-19T03:35:38;2.07;;;1.10;;
16075;SDS011;8142;48.242;11.644;2023-11-19T03:38:06;2.00;;;1.17;;
16075;SDS011;8142;48.242;11.644;2023-11-19T03:40:32;1.53;;;1.20;;
16075;SDS011;8142;48.242;11.644;2023-11-19T03:42:58;1.60;;;1.07;;
16075;SDS011;8142;48.242;11.644;2023-11-19T03:45:24;1.27;;;1.10;;
16075;SDS011;8142;48.242;11.644;2023-11-19T03:47:52;1.10;;;1.10;;
16075;SDS011;8142;48.242;11.644;2023-11-19T03:50:21;1.57;;;1.00;;
16075;SDS011;8142;48.242;11.644;2023-11-19T03:52:47;1.13;;;1.00;;
16075;SDS011;8142;48.242;11.644;2023-11-19T03:55:14;0.80;;;0.80;;
16075;SDS011;8142;48.242;11.644;2023-11-19T03:57:40;1.20;;;0.97;;
16075;SDS011;8142;48.242;11.644;2023-11-19T04:00:06;0.90;;;0.90;;
16075;SDS011;8142;48.242;11.644;2023-11-19T04:02:39;0.80;;;0.80;;
16075;SDS011;8142;48.242;11.644;2023-11-19T04:05:05;1.07;;;0.60;;
16075;SDS011;8142;48.242;11.644;2023-11-19T04:07:32;0.30;;;0.30;;
16075;SDS011;8142;48.242;11.644;2023-11-19T04:09:58;0.53;;;0.50;;
16075;SDS011;8142;48.242;11.644;2023-11-19T04:12:24;0.70;;;0.70;;
16075;SDS011;8142;48.242;11.644;2023-11-19T04:14:50;0.70;;;0.70;;
16075;SDS011;8142;48.242;11.644;2023-11-19T04:17:16;0.43;;;0.43;;
16075;SDS011;8142;48.242;11.644;2023-11-19T04:19:42;0.60;;;0.60;;
16075;SDS011;8142;48.242;11.644;2023-11-19T04:22:08;0.50;;;0.50;;
16075;SDS011;8142;48.242;11.644;2023-11-19T04:24:34;0.67;;;0.50;;
16075;SDS011;8142;48.242;11.644;2023-11-19T04:27:00;0.63;;;0.63;;
16075;SDS011;8142;48.242;11.644;2023-11-19T04:29:26;0.60;;;0.60;;
16075;SDS011;8142;48.242;11.644;2023-11-19T04:31:52;0.80;;;0.80;;
16075;SDS011;8142;48.242;11.644;2023-11-19T04:34:18;0.80;;;0.80;;
16075;SDS011;8142;48.242;11.644;2023-11-19T04:36:44;0.53;;;0.53;;
16075;SDS011;8142;48.242;11.644;2023-11-19T04:39:10;0.70;;;0.70;;
16075;SDS011;8142;48.242;11.644;2023-11-19T04:41:50;0.77;;;0.77;;
16075;SDS011;8142;48.242;11.644;2023-11-19T04:44:20;1.20;;;0.77;;
16075;SDS011;8142;48.242;11.644;2023-11-19T04:46:46;1.10;;;0.70;;
16075;SDS011;8142;48.242;11.644;2023-11-19T04:49:12;0.80;;;0.80;;
16075;SDS011;8142;48.242;11.644;2023-11-19T04:51:44;0.70;;;0.70;;
16075;SDS011;8142;48.242;11.644;2023-11-19T04:54:12;0.63;;;0.63;;
16075;SDS011;8142;48.242;11.644;2023-11-19T04:56:39;0.73;;;0.73;;
16075;SDS011;8142;48.242;11.644;2023-11-19T04:59:10;0.70;;;0.70;;
16075;SDS011;8142;48.242;11.644;2023-11-19T05:01:36;0.70;;;0.70;;
16075;SDS011;8142;48.242;11.644;2023-11-19T05:04:02;0.77;;;0.77;;
16075;SDS011;8142;48.242;11.644;2023-11-19T05:06:28;0.80;;;0.80;;
16075;SDS011;8142;48.242;11.644;2023-11-19T05:08:55;0.70;;;0.70;;
16075;SDS011;8142;48.242;11.644;2023-11-19T05:11:22;0.60;;;0.60;;
16075;SDS011;8142;48.242;11.644;2023-11-19T05:13:48;0.60;;;0.60;;
16075;SDS011;8142;48.242;11.644;2023-11-19T05:16:14;0.70;;;0.70;;
16075;SDS011;8142;48.242;11.644;2023-11-19T05:18:40;0.70;;;0.70;;
16075;SDS011;8142;48.242;11.644;2023-11-19T05:21:06;0.87;;;0.70;;
16075;SDS011;8142;48.242;11.644;2023-11-19T05:23:33;0.60;;;0.60;;
16075;SDS011;8142;48.242;11.644;2023-11-19T05:26:02;0.60;;;0.60;;
16075;SDS011;8142;48.242;11.644;2023-11-19T05:28:30;0.77;;;0.60;;
16075;SDS011;8142;48.242;11.644;2023-11-19T05:30:57;0.70;;;0.70;;
16075;SDS011;8142;48.242;11.644;2023-11-19T05:33:23;0.80;;;0.80;;
16075;SDS011;8142;48.242;11.644;2023-11-19T05:35:48;0.87;;;0.87;;
16075;SDS011;8142;48.242;11.644;2023-11-19T05:38:14;0.87;;;0.87;;
16075;SDS011;8142;48.242;11.644;2023-11-19T05:40:43;0.90;;;0.77;;
16075;SDS011;8142;48.242;11.644;2023-11-19T05:43:09;1.33;;;0.87;;
16075;SDS011;8142;48.242;11.644;2023-11-19T05:45:36;0.80;;;0.80;;
16075;SDS011;8142;48.242;11.644;2023-11-19T05:48:06;2.53;;;0.93;;
16075;SDS011;8142;48.242;11.644;2023-11-19T05:50:36;2.20;;;0.90;;
16075;SDS011;8142;48.242;11.644;2023-11-19T05:53:02;0.73;;;0.73;;
16075;SDS011;8142;48.242;11.644;2023-11-19T05:55:33;0.90;;;0.90;;
16075;SDS011;8142;48.242;11.644;2023-11-19T05:57:59;0.60;;;0.60;;
16075;SDS011;8142;48.242;11.644;2023-11-19T06:00:25;0.70;;;0.70;;
16075;SDS011;8142;48.242;11.644;2023-11-19T06:02:52;1.10;;;0.93;;
16075;SDS011;8142;48.242;11.644;2023-11-19T06:05:18;0.90;;;0.90;;
16075;SDS011;8142;48.242;11.644;2023-11-19T06:07:45;0.90;;;0.90;;
16075;SDS011;8142;48.242;11.644;2023-11-19T06:10:15;0.80;;;0.80;;
16075;SDS011;8142;48.242;11.644;2023-11-19T06:12:45;0.70;;;0.70;;
16075;SDS011;8142;48.242;11.644;2023-11-19T06:15:11;1.00;;;1.00;;
16075;SDS011;8142;48.242;11.644;2023-11-19T06:17:37;1.17;;;1.00;;
16075;SDS011;8142;48.242;11.644;2023-11-19T06:20:04;1.23;;;0.80;;
16075;SDS011;8142;48.242;11.644;2023-11-19T06:22:30;1.00;;;0.90;;
16075;SDS011;8142;48.242;11.644;2023-11-19T06:24:56;0.80;;;0.80;;
16075;SDS011;8142;48.242;11.644;2023-11-19T06:27:24;0.70;;;0.70;;
16075;SDS011;8142;48.242;11.644;2023-11-19T06:29:50;0.60;;;0.60;;
16075;SDS011;8142;48.242;11.644;2023-11-19T06:32:19;0.80;;;0.80;;
16075;SDS011;8142;48.242;11.644;2023-11-19T06:34:46;0.80;;;0.80;;
16075;SDS011;8142;48.242;11.644;2023-11-19T06:37:12;1.00;;;1.00;;
16075;SDS011;8142;48.242;11.644;2023-11-19T06:39:38;0.80;;;0.80;;
16075;SDS011;8142;48.242;11.644;2023-11-19T06:42:04;0.67;;;0.67;;
16075;SDS011;8142;48.242;11.644;2023-11-19T06:44:30;0.80;;;0.80;;
16075;SDS011;8142;48.242;11.644;2023-11-19T06:46:56;0.93;;;0.77;;
16075;SDS011;8142;48.242;11.644;2023-11-19T06:49:21;0.70;;;0.70;;
16075;SDS011;8142;48.242;11.644;2023-11-19T06:51:49;0.80;;;0.80;;
16075;SDS011;8142;48.242;11.644;2023-11-19T06:54:16;1.17;;;0.80;;
16075;SDS011;8142;48.242;11.644;2023-11-19T06:56:43;0.70;;;0.70;;
16075;SDS011;8142;48.242;11.644;2023-11-19T06:59:09;0.70;;;0.70;;
16075;SDS011;8142;48.242;11.644;2023-11-19T07:01:35;0.80;;;0.80;;
16075;SDS011;8142;48.242;11.644;2023-11-19T07:04:02;1.43;;;0.77;;
16075;SDS011;8142;48.242;11.644;2023-11-19T07:06:35;1.10;;;0.80;;
16075;SDS011;8142;48.242;11.644;2023-11-19T07:09:02;0.93;;;0.60;;
16075;SDS011;8142;48.242;11.644;2023-11-19T07:11:38;0.90;;;0.70;;
16075;SDS011;8142;48.242;11.644;2023-11-19T07:14:09;0.70;;;0.70;;
16075;SDS011;8142;48.242;11.644;2023-11-19T07:16:37;0.77;;;0.77;;
16075;SDS011;8142;48.242;11.644;2023-11-19T07:19:05;0.50;;;0.50;;
16075;SDS011;8142;48.242;11.644;2023-11-19T07:21:32;0.60;;;0.60;;
16075;SDS011;8142;48.242;11.644;2023-11-19T07:24:04;0.83;;;0.63;;
16075;SDS011;8142;48.242;11.644;2023-11-19T07:26:31;0.73;;;0.73;;
16075;SDS011;8142;48.242;11.644;2023-11-19T07:28:57;0.67;;;0.67;;
16075;SDS011;8142;48.242;11.644;2023-11-19T07:31:23;0.50;;;0.50;;
16075;SDS011;8142;48.242;11.644;2023-11-19T07:33:49;0.60;;;0.60;;
16075;SDS011;8142;48.242;11.644;2023-11-19T07:36:16;0.80;;;0.50;;
16075;SDS011;8142;48.242;11.644;2023-11-19T07:38:45;0.53;;;0.53;;
16075;SDS011;8142;48.242;11.644;2023-11-19T07:41:14;0.53;;;0.53;;
16075;SDS011;8142;48.242;11.644;2023-11-19T07:43:42;0.57;;;0.57;;
16075;SDS011;8142;48.242;11.644;2023-11-19T07:46:13;0.50;;;0.50;;
16075;SDS011;8142;48.242;11.644;2023-11-19T07:48:39;0.60;;;0.60;;
16075;SDS011;8142;48.242;11.644;2023-11-19T07:51:06;1.43;;;0.50;;
16075;SDS011;8142;48.242;11.644;2023-11-19T07:53:32;0.73;;;0.73;;
16075;SDS011;8142;48.242;11.644;2023-11-19T07:55:58;0.70;;;0.70;;
16075;SDS011;8142;48.242;11.644;2023-11-19T07:58:26;0.50;;;0.50;;
16075;SDS011;8142;48.242;11.644;2023-11-19T08:00:54;0.57;;;0.57;;
16075;SDS011;8142;48.242;11.644;2023-11-19T08:03:21;0.87;;;0.40;;
16075;SDS011;8142;48.242;11.644;2023-11-19T08:05:47;1.20;;;0.60;;
16075;SDS011;8142;48.242;11.644;2023-11-19T08:08:14;0.50;;;0.50;;
16075;SDS011;8142;48.242;11.644;2023-11-19T08:10:40;0.67;;;0.57;;
16075;SDS011;8142;48.242;11.644;2023-11-19T08:13:06;0.50;;;0.50;;
16075;SDS011;8142;48.242;11.644;2023-11-19T08:15:35;0.67;;;0.50;;
16075;SDS011;8142;48.242;11.644;2023-11-19T08:18:01;0.40;;;0.40;;
16075;SDS011;8142;48.242;11.644;2023-11-19T08:20:29;0.47;;;0.47;;
16075;SDS011;8142;48.242;11.644;2023-11-19T08:23:02;0.77;;;0.50;;
16075;SDS011;8142;48.242;11.644;2023-11-19T08:25:29;1.33;;;0.50;;
16075;SDS011;8142;48.242;11.644;2023-11-19T08:27:55;0.60;;;0.60;;
16075;SDS011;8142;48.242;11.644;2023-11-19T08:30:21;0.63;;;0.50;;
16075;SDS011;8142;48.242;11.644;2023-11-19T08:32:47;0.67;;;0.50;;
16075;SDS011;8142;48.242;11.644;2023-11-19T08:35:13;0.57;;;0.57;;
16075;SDS011;8142;48.242;11.644;2023-11-19T08:37:41;0.40;;;0.40;;
16075;SDS011;8142;48.242;11.644;2023-11-19T08:40:07;0.40;;;0.40;;
16075;SDS011;8142;48.242;11.644;2023-11-19T08:42:39;0.50;;;0.50;;
16075;SDS011;8142;48.242;11.644;2023-11-19T08:45:09;0.70;;;0.50;;
16075;SDS011;8142;48.242;11.644;2023-11-19T08:47:37;0.50;;;0.50;;
16075;SDS011;8142;48.242;11.644;2023-11-19T08:50:03;0.60;;;0.60;;
16075;SDS011;8142;48.242;11.644;2023-11-19T08:52:30;0.57;;;0.57;;
16075;SDS011;8142;48.242;11.644;2023-11-19T08:54:56;0.40;;;0.40;;
16075;SDS011;8142;48.242;11.644;2023-11-19T08:57:22;0.50;;;0.50;;
16075;SDS011;8142;48.242;11.644;2023-11-19T08:59:48;0.53;;;0.53;;
16075;SDS011;8142;48.242;11.644;2023-11-19T09:02:14;1.30;;;1.17;;
16075;SDS011;8142;48.242;11.644;2023-11-19T09:04:41;0.80;;;0.80;;
16075;SDS011;8142;48.242;11.644;2023-11-19T09:07:09;1.77;;;1.10;;
16075;SDS011;8142;48.242;11.644;2023-11-19T09:09:36;3.47;;;1.30;;
16075;SDS011;8142;48.242;11.644;2023-11-19T09:12:03;1.30;;;1.20;;
16075;SDS011;8142;48.242;11.644;2023-11-19T09:14:29;0.70;;;0.70;;
16075;SDS011;8142;48.242;11.644;2023-11-19T09:16:56;1.57;;;0.70;;
16075;SDS011;8142;48.242;11.644;2023-11-19T09:19:22;2.03;;;0.87;;
16075;SDS011;8142;48.242;11.644;2023-11-19T09:21:48;1.13;;;0.77;;
16075;SDS011;8142;48.242;11.644;2023-11-19T09:24:14;0.60;;;0.60;;
16075;SDS011;8142;48.242;11.644;2023-11-19T09:26:42;0.90;;;0.70;;
16075;SDS011;8142;48.242;11.644;2023-11-19T09:29:11;0.63;;;0.63;;
16075;SDS011;8142;48.242;11.644;2023-11-19T09:31:38;0.40;;;0.40;;
16075;SDS011;8142;48.242;11.644;2023-11-19T09:34:04;0.50;;;0.50;;
16075;SDS011;8142;48.242;11.644;2023-11-19T09:36:30;0.70;;;0.70;;
16075;SDS011;8142;48.242;11.644;2023-11-19T09:38:56;1.10;;;1.10;;
16075;SDS011;8142;48.242;11.644;2023-11-19T09:41:23;0.80;;;0.80;;
16075;SDS011;8142;48.242;11.644;2023-11-19T09:43:49;0.60;;;0.60;;
16075;SDS011;8142;48.242;11.644;2023-11-19T09:46:16;0.60;;;0.60;;
16075;SDS011;8142;48.242;11.644;2023-11-19T09:48:42;0.80;;;0.80;;
16075;SDS011;8142;48.242;11.644;2023-11-19T09:51:10;0.63;;;0.60;;
16075;SDS011;8142;48.242;11.644;2023-11-19T09:53:37;0.70;;;0.70;;
16075;SDS011;8142;48.242;11.644;2023-11-19T09:56:04;0.80;;;0.80;;
16075;SDS011;8142;48.242;11.644;2023-11-19T09:58:34;0.80;;;0.80;;
16075;SDS011;8142;48.242;11.644;2023-11-19T10:01:00;1.10;;;0.70;;
16075;SDS011;8142;48.242;11.644;2023-11-19T10:03:29;0.60;;;0.60;;
16075;SDS011;8142;48.242;11.644;2023-11-19T10:06:00;0.60;;;0.60;;
16075;SDS011;8142;48.242;11.644;2023-11-19T10:08:27;0.70;;;0.70;;
16075;SDS011;8142;48.242;11.644;2023-11-19T10:10:54;0.60;;;0.60;;
16075;SDS011;8142;48.242;11.644;2023-11-19T10:13:25;2.43;;;1.90;;
16075;SDS011;8142;48.242;11.644;2023-11-19T10:15:52;0.90;;;0.90;;
16075;SDS011;8142;48.242;11.644;2023-11-19T10:18:18;0.80;;;0.80;;
16075;SDS011;8142;48.242;11.644;2023-11-19T10:20:49;0.83;;;0.73;;
16075;SDS011;8142;48.242;11.644;2023-11-19T10:23:14;1.03;;;0.80;;
16075;SDS011;8142;48.242;11.644;2023-11-19T10:25:40;1.40;;;1.30;;
16075;SDS011;8142;48.242;11.644;2023-11-19T10:28:06;1.07;;;0.80;;
16075;SDS011;8142;48.242;11.644;2023-11-19T10:30:32;0.70;;;0.70;;
16075;SDS011;8142;48.242;11.644;2023-11-19T10:35:37;2.10;;;0.70;;
16075;SDS011;8142;48.242;11.644;2023-11-19T10:38:19;1.27;;;0.90;;
16075;SDS011;8142;48.242;11.644;2023-11-19T10:40:47;0.80;;;0.77;;
16075;SDS011;8142;48.242;11.644;2023-11-19T10:43:14;1.27;;;0.90;;
16075;SDS011;8142;48.242;11.644;2023-11-19T10:45:40;0.73;;;0.70;;
16075;SDS011;8142;48.242;11.644;2023-11-19T10:48:06;0.80;;;0.80;;
16075;SDS011;8142;48.242;11.644;2023-11-19T10:50:36;1.00;;;0.90;;
16075;SDS011;8142;48.242;11.644;2023-11-19T10:53:03;1.77;;;1.30;;
16075;SDS011;8142;48.242;11.644;2023-11-19T10:55:31;1.40;;;1.30;;
16075;SDS011;8142;48.242;11.644;2023-11-19T10:57:59;1.17;;;1.00;;
16075;SDS011;8142;48.242;11.644;2023-11-19T11:00:27;1.50;;;1.10;;
16075;SDS011;8142;48.242;11.644;2023-11-19T11:03:19;1.20;;;1.10;;
16075;SDS011;8142;48.242;11.644;2023-11-19T11:05:48;0.97;;;0.80;;
16075;SDS011;8142;48.242;11.644;2023-11-19T11:08:18;0.73;;;0.73;;
16075;SDS011;8142;48.242;11.644;2023-11-19T11:10:48;0.70;;;0.70;;
16075;SDS011;8142;48.242;11.644;2023-11-19T11:13:16;1.93;;;0.70;;
16075;SDS011;8142;48.242;11.644;2023-11-19T11:15:44;0.70;;;0.70;;
16075;SDS011;8142;48.242;11.644;2023-11-19T11:18:12;1.03;;;0.70;;
16075;SDS011;8142;48.242;11.644;2023-11-19T11:20:39;0.60;;;0.60;;
16075;SDS011;8142;48.242;11.644;2023-11-19T11:34:16;0.97;;;0.60;;
16075;SDS011;8142;48.242;11.644;2023-11-19T11:37:10;0.33;;;0.33;;
16075;SDS011;8142;48.242;11.644;2023-11-19T11:39:51;0.77;;;0.77;;
16075;SDS011;8142;48.242;11.644;2023-11-19T11:45:02;0.43;;;0.43;;
16075;SDS011;8142;48.242;11.644;2023-11-19T11:58:19;1.27;;;0.50;;
16075;SDS011;8142;48.242;11.644;2023-11-19T12:00:47;1.13;;;0.50;;
16075;SDS011;8142;48.242;11.644;2023-11-19T12:03:14;0.60;;;0.60;;
16075;SDS011;8142;48.242;11.644;2023-11-19T12:05:41;0.63;;;0.50;;
16075;SDS011;8142;48.242;11.644;2023-11-19T12:08:10;0.93;;;0.50;;
16075;SDS011;8142;48.242;11.644;2023-11-19T12:16:34;0.50;;;0.50;;
16075;SDS011;8142;48.242;11.644;2023-11-19T12:19:03;0.40;;;0.40;;
16075;SDS011;8142;48.242;11.644;2023-11-19T12:21:33;0.50;;;0.50;;
16075;SDS011;8142;48.242;11.644;2023-11-19T12:24:02;0.70;;;0.70;;
16075;SDS011;8142;48.242;11.644;2023-11-19T12:26:33;0.57;;;0.50;;
16075;SDS011;8142;48.242;11.644;2023-11-19T12:29:03;1.60;;;0.50;;
16075;SDS011;8142;48.242;11.644;2023-11-19T12:31:55;1.23;;;0.47;;
16075;SDS011;8142;48.242;11.644;2023-11-19T12:34:41;0.53;;;0.50;;
16075;SDS011;8142;48.242;11.644;2023-11-19T12:37:07;1.30;;;0.50;;
16075;SDS011;8142;48.242;11.644;2023-11-19T12:39:35;0.50;;;0.47;;
16075;SDS011;8142;48.242;11.644;2023-11-19T12:42:01;0.50;;;0.50;;
16075;SDS011;8142;48.242;11.644;2023-11-19T12:44:27;0.40;;;0.40;;
16075;SDS011;8142;48.242;11.644;2023-11-19T12:47:08;0.50;;;0.50;;
16075;SDS011;8142;48.242;11.644;2023-11-19T12:49:36;0.50;;;0.50;;
16075;SDS011;8142;48.242;11.644;2023-11-19T12:52:10;0.60;;;0.60;;
16075;SDS011;8142;48.242;11.644;2023-11-19T12:54:37;0.93;;;0.40;;
16075;SDS011;8142;48.242;11.644;2023-11-19T12:57:04;0.63;;;0.63;;
16075;SDS011;8142;48.242;11.644;2023-11-19T12:59:30;0.83;;;0.50;;
16075;SDS011;8142;48.242;11.644;2023-11-19T13:01:57;0.73;;;0.50;;
16075;SDS011;8142;48.242;11.644;2023-11-19T13:04:23;0.47;;;0.40;;
16075;SDS011;8142;48.242;11.644;2023-11-19T13:06:56;1.10;;;0.30;;
16075;SDS011;8142;48.242;11.644;2023-11-19T13:09:26;0.40;;;0.40;;
16075;SDS011;8142;48.242;11.644;2023-11-19T13:11:54;1.07;;;0.70;;
16075;SDS011;8142;48.242;11.644;2023-11-19T13:14:22;0.80;;;0.70;;
16075;SDS011;8142;48.242;11.644;2023-11-19T13:16:48;1.00;;;0.70;;
16075;SDS011;8142;48.242;11.644;2023-11-19T13:19:15;0.40;;;0.40;;
16075;SDS011;8142;48.242;11.644;2023-11-19T13:21:41;0.70;;;0.60;;
16075;SDS011;8142;48.242;11.644;2023-11-19T13:24:08;0.50;;;0.50;;
16075;SDS011;8142;48.242;11.644;2023-11-19T13:26:34;0.60;;;0.60;;
16075;SDS011;8142;48.242;11.644;2023-11-19T13:29:00;0.40;;;0.40;;
16075;SDS011;8142;48.242;11.644;2023-11-19T13:31:26;0.50;;;0.40;;
16075;SDS011;8142;48.242;11.644;2023-11-19T13:33:52;0.83;;;0.60;;
16075;SDS011;8142;48.242;11.644;2023-11-19T13:36:18;0.50;;;0.50;;
16075;SDS011;8142;48.242;11.644;2023-11-19T13:38:45;1.03;;;0.60;;
16075;SDS011;8142;48.242;11.644;2023-11-19T13:41:12;0.43;;;0.43;;
16075;SDS011;8142;48.242;11.644;2023-11-19T13:43:39;0.70;;;0.70;;
16075;SDS011;8142;48.242;11.644;2023-11-19T13:46:05;1.27;;;0.60;;
16075;SDS011;8142;48.242;11.644;2023-11-19T13:48:31;0.87;;;0.50;;
16075;SDS011;8142;48.242;11.644;2023-11-19T13:50:57;0.73;;;0.50;;
16075;SDS011;8142;48.242;11.644;2023-11-19T13:53:23;0.70;;;0.70;;
16075;SDS011;8142;48.242;11.644;2023-11-19T13:55:49;0.60;;;0.60;;
16075;SDS011;8142;48.242;11.644;2023-11-19T13:58:15;0.83;;;0.83;;
16075;SDS011;8142;48.242;11.644;2023-11-19T14:00:41;1.30;;;1.20;;
16075;SDS011;8142;48.242;11.644;2023-11-19T14:03:08;1.20;;;1.00;;
16075;SDS011;8142;48.242;11.644;2023-11-19T14:05:37;0.93;;;0.90;;
16075;SDS011;8142;48.242;11.644;2023-11-19T14:08:04;1.03;;;0.97;;
16075;SDS011;8142;48.242;11.644;2023-11-19T14:10:39;0.97;;;0.90;;
16075;SDS011;8142;48.242;11.644;2023-11-19T14:13:06;0.90;;;0.90;;
16075;SDS011;8142;48.242;11.644;2023-11-19T14:15:32;1.63;;;1.10;;
16075;SDS011;8142;48.242;11.644;2023-11-19T14:17:59;1.77;;;0.90;;
16075;SDS011;8142;48.242;11.644;2023-11-19T14:20:25;0.97;;;0.93;;
16075;SDS011;8142;48.242;11.644;2023-11-19T14:22:51;1.13;;;1.03;;
16075;SDS011;8142;48.242;11.644;2023-11-19T14:25:17;0.87;;;0.87;;
16075;SDS011;8142;48.242;11.644;2023-11-19T14:27:44;1.13;;;0.90;;
16075;SDS011;8142;48.242;11.644;2023-11-19T14:30:14;1.20;;;0.90;;
16075;SDS011;8142;48.242;11.644;2023-11-19T14:32:41;0.90;;;0.90;;
16075;SDS011;8142;48.242;11.644;2023-11-19T14:35:09;1.07;;;0.97;;
16075;SDS011;8142;48.242;11.644;2023-11-19T14:37:36;1.60;;;1.20;;
16075;SDS011;8142;48.242;11.644;2023-11-19T14:40:02;2.20;;;1.13;;
16075;SDS011;8142;48.242;11.644;2023-11-19T14:42:32;2.27;;;1.10;;
16075;SDS011;8142;48.242;11.644;2023-11-19T14:44:58;0.87;;;0.87;;
16075;SDS011;8142;48.242;11.644;2023-11-19T14:47:24;1.13;;;0.90;;
16075;SDS011;8142;48.242;11.644;2023-11-19T14:49:50;1.50;;;0.90;;
16075;SDS011;8142;48.242;11.644;2023-11-19T14:52:16;1.10;;;0.80;;
16075;SDS011;8142;48.242;11.644;2023-11-19T14:54:43;2.23;;;0.97;;
16075;SDS011;8142;48.242;11.644;2023-11-19T14:57:09;1.07;;;0.80;;
16075;SDS011;8142;48.242;11.644;2023-11-19T14:59:35;1.00;;;0.93;;
16075;SDS011;8142;48.242;11.644;2023-11-19T15:02:02;1.63;;;0.80;;
16075;SDS011;8142;48.242;11.644;2023-11-19T15:04:28;0.83;;;0.83;;
16075;SDS011;8142;48.242;11.644;2023-11-19T15:06:58;0.50;;;0.50;;
16075;SDS011;8142;48.242;11.644;2023-11-19T15:09:24;0.80;;;0.80;;
16075;SDS011;8142;48.242;11.644;2023-11-19T15:11:50;0.80;;;0.80;;
16075;SDS011;8142;48.242;11.644;2023-11-19T15:14:19;1.60;;;0.70;;
16075;SDS011;8142;48.242;11.644;2023-11-19T15:16:45;0.70;;;0.70;;
16075;SDS011;8142;48.242;11.644;2023-11-19T15:19:12;0.73;;;0.73;;
16075;SDS011;8142;48.242;11.644;2023-11-19T15:21:39;0.70;;;0.70;;
16075;SDS011;8142;48.242;11.644;2023-11-19T15:24:06;0.73;;;0.70;;
16075;SDS011;8142;48.242;11.644;2023-11-19T15:26:35;0.77;;;0.77;;